createdAt,value
2019-05-29T00:01:54.489Z,12.10
2019-05-29T00:04:26.652Z,12.10
2019-05-29T00:06:58.798Z,12.00
2019-05-29T00:09:30.611Z,11.80
2019-05-29T00:12:02.869Z,11.80
2019-05-29T00:14:35.690Z,11.60
2019-05-29T00:17:08.337Z,11.60
2019-05-29T00:19:40.432Z,11.70
2019-05-29T00:22:12.907Z,11.50
2019-05-29T00:24:45.022Z,11.40
2019-05-29T00:27:17.896Z,11.40
2019-05-29T00:29:50.059Z,11.50
2019-05-29T00:32:22.314Z,11.70
2019-05-29T00:34:54.663Z,11.80
2019-05-29T00:37:26.847Z,11.90
2019-05-29T00:39:58.575Z,11.90
2019-05-29T00:42:30.431Z,11.70
2019-05-29T00:45:02.633Z,11.70
2019-05-29T00:47:34.454Z,11.90
2019-05-29T00:50:07.982Z,12.00
2019-05-29T00:52:40.015Z,12.00
2019-05-29T00:55:12.563Z,12.10
2019-05-29T00:57:44.559Z,12.00
2019-05-29T01:00:17.478Z,11.90
2019-05-29T01:02:49.634Z,11.80
2019-05-29T01:05:22.023Z,11.90
2019-05-29T01:07:54.457Z,11.90
2019-05-29T01:10:26.314Z,11.70
2019-05-29T01:12:58.298Z,11.70
2019-05-29T01:15:31.223Z,11.80
2019-05-29T01:18:03.449Z,11.80
2019-05-29T01:20:35.387Z,11.60
2019-05-29T01:23:07.880Z,11.10
2019-05-29T01:25:40.031Z,11.00
2019-05-29T01:28:12.691Z,10.90
2019-05-29T01:30:44.687Z,10.90
2019-05-29T01:33:20.074Z,11.10
2019-05-29T01:35:50.988Z,11.30
2019-05-29T01:38:23.490Z,11.20
2019-05-29T01:40:55.724Z,11.00
2019-05-29T01:43:27.734Z,11.00
2019-05-29T01:46:00.174Z,11.10
2019-05-29T01:48:32.145Z,11.10
2019-05-29T01:51:04.591Z,10.80
2019-05-29T01:53:36.500Z,10.80
2019-05-29T01:56:08.807Z,10.60
2019-05-29T01:58:40.794Z,10.40
2019-05-29T02:01:13.020Z,10.50
2019-05-29T02:03:44.879Z,10.50
2019-05-29T02:06:17.853Z,10.80
2019-05-29T02:08:50.562Z,10.90
2019-05-29T02:11:23.341Z,11.00
2019-05-29T02:13:55.623Z,11.00
2019-05-29T02:16:27.567Z,11.10
2019-05-29T02:18:59.396Z,11.10
2019-05-29T02:21:31.141Z,11.00
2019-05-29T02:24:03.228Z,11.00
2019-05-29T02:26:35.069Z,11.10
2019-05-29T02:29:07.020Z,11.10
2019-05-29T02:31:39.247Z,11.20
2019-05-29T02:34:11.204Z,11.20
2019-05-29T02:36:43.353Z,11.10
2019-05-29T02:39:15.211Z,11.10
2019-05-29T02:41:47.057Z,10.70
2019-05-29T02:44:19.281Z,10.80
2019-05-29T02:46:51.175Z,10.90
2019-05-29T02:49:23.897Z,10.90
2019-05-29T02:51:56.071Z,10.90
2019-05-29T02:54:30.039Z,10.80
2019-05-29T02:57:02.534Z,11.00
2019-05-29T02:59:34.372Z,11.00
2019-05-29T03:02:06.770Z,10.90
2019-05-29T03:04:38.607Z,10.90
2019-05-29T03:07:10.525Z,11.00
2019-05-29T03:09:42.624Z,10.90
2019-05-29T03:12:14.943Z,11.00
2019-05-29T03:14:46.901Z,10.80
2019-05-29T03:17:23.672Z,10.70
2019-05-29T03:19:55.726Z,10.70
2019-05-29T03:22:28.815Z,10.50
2019-05-29T03:25:01.821Z,10.70
2019-05-29T03:27:34.109Z,10.90
2019-05-29T03:30:07.247Z,11.00
2019-05-29T03:32:47.375Z,10.70
2019-05-29T03:35:13.492Z,10.50
2019-05-29T03:37:46.014Z,10.70
2019-05-29T03:40:18.355Z,10.70
2019-05-29T03:42:50.684Z,10.70
2019-05-29T03:45:23.205Z,10.50
2019-05-29T03:47:55.757Z,10.50
2019-05-29T03:50:29.399Z,10.40
2019-05-29T03:53:02.536Z,10.40
2019-05-29T03:55:35.948Z,10.30
2019-05-29T03:58:09.353Z,10.30
2019-05-29T04:00:45.962Z,10.30
2019-05-29T04:03:15.516Z,10.30
2019-05-29T04:05:47.777Z,10.40
2019-05-29T04:08:20.442Z,10.40
2019-05-29T04:10:52.808Z,10.50
2019-05-29T04:13:27.249Z,10.50
2019-05-29T04:16:00.895Z,10.50
2019-05-29T04:18:34.042Z,10.60
2019-05-29T04:21:09.548Z,10.50
2019-05-29T04:23:43.928Z,10.70
2019-05-29T04:26:16.623Z,10.70
2019-05-29T04:28:49.129Z,10.60
2019-05-29T04:31:21.602Z,10.60
2019-05-29T04:33:53.872Z,10.60
2019-05-29T04:36:26.434Z,10.30
2019-05-29T04:38:59.012Z,10.30
2019-05-29T04:41:32.672Z,10.50
2019-05-29T04:44:05.201Z,10.40
2019-05-29T04:46:38.464Z,10.30
2019-05-29T04:49:11.524Z,10.40
2019-05-29T04:51:43.772Z,10.60
2019-05-29T04:54:16.745Z,10.60
2019-05-29T04:56:48.867Z,10.80
2019-05-29T04:59:21.028Z,10.80
2019-05-29T05:01:53.002Z,11.00
2019-05-29T05:04:24.808Z,10.70
2019-05-29T05:06:57.101Z,10.70
2019-05-29T05:09:29.309Z,10.90
2019-05-29T05:12:01.672Z,11.10
2019-05-29T05:14:34.241Z,11.10
2019-05-29T05:17:06.873Z,11.20
2019-05-29T05:19:40.149Z,11.30
2019-05-29T05:22:12.464Z,11.20
2019-05-29T05:24:44.579Z,11.30
2019-05-29T05:27:17.567Z,10.90
2019-05-29T05:29:49.994Z,10.80
2019-05-29T05:32:22.357Z,10.90
2019-05-29T05:34:54.265Z,10.90
2019-05-29T05:37:26.599Z,10.90
2019-05-29T05:39:58.415Z,11.20
2019-05-29T05:42:31.106Z,11.10
2019-05-29T05:45:03.773Z,11.30
2019-05-29T05:47:50.156Z,11.40
2019-05-29T05:50:10.707Z,11.40
2019-05-29T05:52:42.552Z,11.50
2019-05-29T05:55:15.479Z,11.60
2019-05-29T05:57:47.724Z,11.70
2019-05-29T06:00:38.094Z,11.70
2019-05-29T06:03:10.366Z,11.30
2019-05-29T06:05:42.531Z,11.50
2019-05-29T06:08:15.163Z,11.40
2019-05-29T06:10:47.478Z,11.50
2019-05-29T06:13:19.309Z,11.60
2019-05-29T06:15:51.890Z,11.50
2019-05-29T06:18:24.508Z,11.40
2019-05-29T06:20:57.101Z,11.70
2019-05-29T06:23:29.665Z,11.90
2019-05-29T06:26:01.818Z,11.90
2019-05-29T06:28:34.946Z,12.10
2019-05-29T06:31:06.972Z,11.80
2019-05-29T06:33:39.541Z,11.90
2019-05-29T06:36:11.763Z,12.00
2019-05-29T06:38:44.831Z,12.00
2019-05-29T06:41:17.107Z,11.80
2019-05-29T06:43:49.393Z,11.60
2019-05-29T06:46:21.743Z,11.60
2019-05-29T06:49:00.485Z,11.80
2019-05-29T06:51:27.742Z,12.10
2019-05-29T06:53:59.681Z,11.70
2019-05-29T06:56:31.898Z,12.10
2019-05-29T06:59:05.357Z,12.00
2019-05-29T07:01:39.413Z,12.10
2019-05-29T07:04:12.687Z,12.30
2019-05-29T07:06:45.407Z,12.10
2019-05-29T07:09:17.428Z,11.90
2019-05-29T07:11:49.939Z,12.00
2019-05-29T07:14:22.059Z,12.00
2019-05-29T07:16:56.249Z,12.00
2019-05-29T07:19:45.376Z,12.20
2019-05-29T07:22:03.351Z,12.30
2019-05-29T07:24:36.996Z,12.50
2019-05-29T07:27:13.343Z,12.70
2019-05-29T07:29:45.152Z,12.60
2019-05-29T07:32:17.865Z,12.80
2019-05-29T07:35:02.747Z,12.80
2019-05-29T07:37:25.566Z,12.60
2019-05-29T07:39:57.794Z,12.70
2019-05-29T07:42:30.138Z,12.70
2019-05-29T07:45:02.528Z,12.70
2019-05-29T07:47:34.716Z,12.70
2019-05-29T07:50:07.902Z,12.60
2019-05-29T07:52:40.851Z,12.40
2019-05-29T07:55:13.752Z,12.60
2019-05-29T07:57:46.998Z,12.60
2019-05-29T08:00:20.140Z,12.90
2019-05-29T08:02:52.295Z,13.10
2019-05-29T08:05:25.015Z,13.00
2019-05-29T08:07:57.341Z,13.10
2019-05-29T08:10:29.700Z,13.00
2019-05-29T08:13:01.638Z,12.90
2019-05-29T08:15:33.824Z,12.90
2019-05-29T08:18:06.150Z,13.00
2019-05-29T08:20:38.109Z,13.00
2019-05-29T08:23:10.232Z,13.10
2019-05-29T08:25:43.454Z,13.30
2019-05-29T08:28:15.733Z,13.40
2019-05-29T08:30:52.502Z,13.30
2019-05-29T08:33:21.641Z,13.10
2019-05-29T08:35:59.971Z,13.00
2019-05-29T08:38:27.343Z,13.00
2019-05-29T08:41:00.103Z,13.10
2019-05-29T08:43:31.860Z,13.20
2019-05-29T08:46:04.452Z,13.20
2019-05-29T08:48:36.602Z,13.30
2019-05-29T08:51:08.914Z,13.40
2019-05-29T08:53:42.531Z,13.60
2019-05-29T08:56:14.757Z,13.90
2019-05-29T08:58:48.390Z,14.10
2019-05-29T09:01:20.554Z,13.80
2019-05-29T09:03:53.529Z,13.70
2019-05-29T09:06:25.821Z,13.70
2019-05-29T09:08:58.136Z,13.80
2019-05-29T09:11:30.260Z,13.70
2019-05-29T09:14:02.791Z,14.20
2019-05-29T09:16:34.743Z,14.40
2019-05-29T09:19:07.068Z,14.40
2019-05-29T09:21:39.651Z,14.30
2019-05-29T09:24:12.826Z,14.30
2019-05-29T09:26:46.538Z,14.10
2019-05-29T09:29:21.801Z,13.90
2019-05-29T09:31:52.841Z,13.70
2019-05-29T09:34:24.861Z,13.70
2019-05-29T09:36:57.199Z,13.80
2019-05-29T09:39:29.207Z,13.90
2019-05-29T09:42:01.676Z,14.30
2019-05-29T09:44:38.778Z,14.00
2019-05-29T09:47:07.757Z,14.20
2019-05-29T09:49:40.048Z,14.50
2019-05-29T09:52:11.993Z,14.60
2019-05-29T09:54:44.895Z,14.70
2019-05-29T09:57:17.142Z,14.60
2019-05-29T09:59:49.400Z,14.80
2019-05-29T10:02:21.563Z,14.60
2019-05-29T10:04:54.809Z,14.50
2019-05-29T10:07:28.027Z,14.50
2019-05-29T10:10:01.108Z,14.80
2019-05-29T10:12:33.893Z,14.80
2019-05-29T10:15:06.276Z,14.80
2019-05-29T10:17:38.483Z,15.00
2019-05-29T10:20:11.558Z,15.10
2019-05-29T10:22:43.595Z,14.90
2019-05-29T10:25:15.994Z,14.90
2019-05-29T10:27:48.110Z,14.90
2019-05-29T10:30:22.350Z,14.70
2019-05-29T10:32:54.688Z,14.80
2019-05-29T10:35:27.252Z,14.60
2019-05-29T10:37:59.160Z,15.00
2019-05-29T10:40:31.237Z,15.70
2019-05-29T10:43:03.730Z,16.30
2019-05-29T10:45:36.016Z,15.90
2019-05-29T10:48:08.885Z,15.70
2019-05-29T10:50:41.797Z,15.00
2019-05-29T10:53:13.784Z,14.60
2019-05-29T10:55:46.405Z,14.70
2019-05-29T10:58:19.196Z,14.60
2019-05-29T11:00:51.367Z,15.20
2019-05-29T11:03:23.364Z,15.50
2019-05-29T11:05:56.497Z,16.10
2019-05-29T11:08:28.807Z,16.00
2019-05-29T11:11:01.005Z,15.50
2019-05-29T11:13:33.258Z,15.70
2019-05-29T11:16:05.352Z,15.80
2019-05-29T11:18:37.310Z,16.00
2019-05-29T11:21:09.952Z,16.00
2019-05-29T11:23:41.922Z,15.50
2019-05-29T11:26:13.887Z,15.90
2019-05-29T11:28:45.847Z,16.00
2019-05-29T11:31:17.810Z,16.40
2019-05-29T11:33:50.753Z,16.70
2019-05-29T11:36:22.848Z,17.10
2019-05-29T11:38:54.787Z,17.30
2019-05-29T11:41:27.016Z,17.00
2019-05-29T11:43:59.017Z,17.00
2019-05-29T11:46:31.018Z,17.00
2019-05-29T11:49:03.676Z,16.80
2019-05-29T11:51:36.003Z,17.30
2019-05-29T11:54:07.944Z,17.20
2019-05-29T11:56:39.912Z,17.40
2019-05-29T11:59:11.845Z,17.40
2019-05-29T12:01:50.073Z,17.20
2019-05-29T12:04:26.238Z,16.90
2019-05-29T12:06:53.276Z,16.40
2019-05-29T12:09:32.896Z,16.30
2019-05-29T12:12:01.987Z,16.30
2019-05-29T12:14:34.390Z,16.50
2019-05-29T12:17:06.575Z,16.90
2019-05-29T12:19:39.071Z,16.70
2019-05-29T12:22:11.161Z,16.50
2019-05-29T12:24:43.368Z,16.80
2019-05-29T12:27:15.555Z,16.60
2019-05-29T12:29:48.772Z,16.30
2019-05-29T12:32:21.012Z,16.70
2019-05-29T12:34:55.423Z,16.50
2019-05-29T12:37:27.430Z,16.00
2019-05-29T12:39:59.947Z,16.10
2019-05-29T12:42:31.936Z,16.60
2019-05-29T12:45:04.750Z,16.60
2019-05-29T12:47:36.832Z,16.60
2019-05-29T12:50:09.079Z,16.60
2019-05-29T12:52:41.205Z,16.80
2019-05-29T12:55:14.110Z,16.50
2019-05-29T12:57:46.644Z,16.70
2019-05-29T13:00:19.466Z,17.10
2019-05-29T13:02:54.386Z,16.90
2019-05-29T13:05:26.468Z,17.10
2019-05-29T13:07:58.988Z,17.30
2019-05-29T13:10:31.833Z,17.20
2019-05-29T13:13:09.994Z,17.40
2019-05-29T13:15:38.756Z,17.60
2019-05-29T13:18:10.705Z,18.00
2019-05-29T13:20:42.765Z,18.10
2019-05-29T13:23:14.762Z,18.20
2019-05-29T13:25:47.212Z,18.50
2019-05-29T13:28:19.229Z,18.90
2019-05-29T13:30:51.124Z,18.20
2019-05-29T13:33:23.047Z,18.10
2019-05-29T13:35:56.278Z,18.20
2019-05-29T13:38:28.498Z,17.70
2019-05-29T13:41:00.715Z,17.50
2019-05-29T13:43:33.037Z,17.20
2019-05-29T13:46:05.172Z,17.20
2019-05-29T13:48:37.645Z,17.50
2019-05-29T13:51:09.799Z,18.10
2019-05-29T13:53:41.840Z,18.30
2019-05-29T13:56:14.129Z,18.40
2019-05-29T13:58:46.068Z,18.40
2019-05-29T14:01:18.650Z,18.10
2019-05-29T14:03:50.834Z,17.50
2019-05-29T14:06:22.988Z,17.20
2019-05-29T14:08:55.127Z,17.20
2019-05-29T14:11:27.543Z,17.30
2019-05-29T14:14:01.188Z,17.70
2019-05-29T14:16:33.200Z,17.80
2019-05-29T14:19:05.137Z,18.20
2019-05-29T14:21:37.332Z,18.80
2019-05-29T14:24:26.250Z,18.90
2019-05-29T14:26:43.158Z,19.10
2019-05-29T14:29:15.028Z,18.50
2019-05-29T14:31:46.963Z,17.70
2019-05-29T14:34:19.015Z,17.80
2019-05-29T14:36:50.749Z,17.90
2019-05-29T14:39:22.778Z,17.90
2019-05-29T14:41:54.937Z,17.80
2019-05-29T14:44:27.048Z,17.90
2019-05-29T14:46:59.163Z,17.80
2019-05-29T14:49:31.859Z,17.60
2019-05-29T14:52:04.511Z,18.00
2019-05-29T14:54:41.699Z,18.30
2019-05-29T14:57:24.498Z,18.70
2019-05-29T14:59:44.770Z,18.90
2019-05-29T15:02:23.634Z,19.10
2019-05-29T15:04:50.820Z,19.20
2019-05-29T15:07:23.151Z,19.00
2019-05-29T15:09:55.113Z,19.10
2019-05-29T15:12:27.300Z,19.20
2019-05-29T15:14:59.247Z,18.90
2019-05-29T15:17:31.482Z,18.70
2019-05-29T15:20:05.492Z,18.80
2019-05-29T15:22:37.491Z,19.00
2019-05-29T15:25:18.388Z,19.20
2019-05-29T15:27:43.269Z,18.90
2019-05-29T15:30:20.763Z,19.10
2019-05-29T15:32:49.730Z,18.80
2019-05-29T15:35:22.245Z,18.10
2019-05-29T15:37:54.193Z,18.20
2019-05-29T15:40:26.432Z,18.60
2019-05-29T15:42:59.562Z,18.30
2019-05-29T15:45:31.583Z,18.20
2019-05-29T15:48:03.615Z,18.50
2019-05-29T15:50:36.003Z,18.70
2019-05-29T15:53:08.921Z,18.80
2019-05-29T15:55:40.857Z,18.30
2019-05-29T15:58:13.389Z,18.30
2019-05-29T16:00:46.116Z,18.50
2019-05-29T16:03:18.259Z,18.80
2019-05-29T16:05:50.551Z,18.80
2019-05-29T16:08:22.803Z,18.90
2019-05-29T16:10:54.652Z,19.10
2019-05-29T16:13:26.822Z,19.30
2019-05-29T16:15:58.663Z,19.30
2019-05-29T16:18:30.808Z,18.80
2019-05-29T16:21:02.840Z,18.70
2019-05-29T16:23:36.098Z,18.60
2019-05-29T16:26:08.278Z,18.20
2019-05-29T16:28:40.652Z,18.30
2019-05-29T16:31:12.799Z,17.90
2019-05-29T16:33:44.687Z,18.30
2019-05-29T16:36:18.542Z,18.50
2019-05-29T16:38:50.995Z,18.30
2019-05-29T16:41:23.455Z,18.00
2019-05-29T16:43:55.290Z,18.20
2019-05-29T16:46:27.127Z,18.10
2019-05-29T16:48:59.274Z,18.10
2019-05-29T16:51:31.244Z,18.10
2019-05-29T16:54:03.585Z,18.00
2019-05-29T16:56:35.848Z,18.10
2019-05-29T16:59:07.973Z,18.30
2019-05-29T17:01:39.904Z,18.30
2019-05-29T17:04:12.006Z,18.50
2019-05-29T17:06:44.192Z,18.40
2019-05-29T17:09:16.381Z,18.20
2019-05-29T17:11:48.759Z,17.90
2019-05-29T17:14:21.007Z,18.00
2019-05-29T17:16:53.284Z,18.00
2019-05-29T17:19:25.684Z,18.00
2019-05-29T17:21:57.722Z,17.90
2019-05-29T17:24:30.147Z,17.50
2019-05-29T17:27:03.494Z,17.20
2019-05-29T17:29:36.120Z,17.30
2019-05-29T17:32:07.982Z,17.60
2019-05-29T17:34:39.916Z,17.70
2019-05-29T17:37:12.061Z,17.70
2019-05-29T17:39:44.098Z,17.70
2019-05-29T17:42:16.216Z,17.60
2019-05-29T17:44:48.699Z,17.60
2019-05-29T17:47:21.484Z,17.50
2019-05-29T17:49:53.717Z,17.50
2019-05-29T17:52:26.199Z,17.50
2019-05-29T17:54:58.471Z,17.20
2019-05-29T17:57:30.350Z,17.10
2019-05-29T18:00:02.330Z,17.20
2019-05-29T18:02:50.413Z,17.00
2019-05-29T18:05:08.571Z,16.80
2019-05-29T18:07:41.282Z,16.80
2019-05-29T18:10:14.159Z,16.90
2019-05-29T18:12:46.148Z,16.80
2019-05-29T18:15:19.608Z,16.90
2019-05-29T18:17:51.951Z,17.00
2019-05-29T18:20:24.269Z,16.80
2019-05-29T18:22:56.605Z,16.80
2019-05-29T18:25:28.532Z,16.80
2019-05-29T18:28:01.050Z,16.60
2019-05-29T18:30:33.109Z,16.40
2019-05-29T18:33:04.981Z,16.30
2019-05-29T18:35:37.071Z,16.30
2019-05-29T18:38:09.390Z,16.40
2019-05-29T18:40:41.623Z,16.40
2019-05-29T18:43:13.769Z,16.10
2019-05-29T18:45:45.989Z,16.00
2019-05-29T18:48:18.506Z,15.90
2019-05-29T18:50:51.234Z,15.90
2019-05-29T18:53:24.725Z,15.90
2019-05-29T18:55:57.010Z,15.70
2019-05-29T18:58:30.521Z,15.60
2019-05-29T19:01:03.854Z,15.60
2019-05-29T19:03:40.135Z,15.60
2019-05-29T19:06:10.172Z,15.70
2019-05-29T19:08:42.339Z,15.70
2019-05-29T19:11:14.565Z,15.70
2019-05-29T19:13:46.424Z,15.70
2019-05-29T19:16:18.595Z,15.70
2019-05-29T19:18:50.671Z,15.70
2019-05-29T19:21:22.639Z,15.80
2019-05-29T19:23:54.801Z,15.70
2019-05-29T19:26:26.774Z,15.70
2019-05-29T19:28:58.706Z,15.70
2019-05-29T19:31:31.373Z,15.60
2019-05-29T19:34:03.516Z,15.50
2019-05-29T19:36:35.344Z,15.50
2019-05-29T19:39:07.770Z,15.40
2019-05-29T19:41:39.939Z,15.40
2019-05-29T19:44:13.182Z,15.40
2019-05-29T19:46:53.658Z,15.30
2019-05-29T19:49:19.799Z,15.20
2019-05-29T19:51:51.960Z,15.20
2019-05-29T19:54:25.418Z,15.20
2019-05-29T19:56:57.816Z,15.10
2019-05-29T19:59:30.176Z,15.20
2019-05-29T20:02:01.985Z,15.10
2019-05-29T20:04:34.753Z,15.10
2019-05-29T20:07:06.961Z,15.10
2019-05-29T20:09:39.799Z,15.10
2019-05-29T20:12:12.058Z,15.00
2019-05-29T20:14:44.006Z,14.90
2019-05-29T20:17:15.932Z,14.90
2019-05-29T20:19:48.409Z,14.90
2019-05-29T20:22:20.759Z,14.90
2019-05-29T20:24:52.705Z,14.80
2019-05-29T20:27:24.736Z,14.80
2019-05-29T20:29:56.915Z,14.80
2019-05-29T20:32:30.444Z,14.70
2019-05-29T20:35:03.112Z,14.60
2019-05-29T20:37:36.259Z,14.60
2019-05-29T20:40:09.145Z,14.70
2019-05-29T20:42:42.455Z,14.60
2019-05-29T20:45:15.182Z,14.50
2019-05-29T20:47:47.700Z,14.50
2019-05-29T20:50:19.751Z,14.50
2019-05-29T20:52:52.645Z,14.50
2019-05-29T20:55:24.894Z,14.40
2019-05-29T20:57:56.890Z,14.40
2019-05-29T21:00:29.271Z,14.40
2019-05-29T21:03:01.099Z,14.30
2019-05-29T21:05:34.520Z,14.40
2019-05-29T21:08:06.512Z,14.30
2019-05-29T21:10:40.289Z,14.20
2019-05-29T21:13:12.686Z,14.30
2019-05-29T21:15:45.027Z,14.20
2019-05-29T21:18:17.494Z,14.10
2019-05-29T21:20:49.726Z,14.10
2019-05-29T21:23:22.183Z,14.00
2019-05-29T21:25:54.699Z,13.90
2019-05-29T21:28:39.282Z,13.90
2019-05-29T21:31:00.378Z,13.90
2019-05-29T21:33:33.113Z,13.90
2019-05-29T21:36:06.129Z,13.90
2019-05-29T21:38:38.079Z,13.90
2019-05-29T21:41:10.255Z,13.80
2019-05-29T21:43:42.729Z,13.80
2019-05-29T21:46:14.746Z,13.80
2019-05-29T21:48:47.487Z,13.80
2019-05-29T21:51:19.545Z,13.80
2019-05-29T21:53:51.846Z,13.80
2019-05-29T21:56:24.199Z,13.80
2019-05-29T21:59:03.544Z,13.70
2019-05-29T22:01:30.206Z,13.60
2019-05-29T22:04:03.444Z,13.60
2019-05-29T22:06:35.807Z,13.50
2019-05-29T22:09:12.248Z,13.50
2019-05-29T22:11:44.335Z,13.50
2019-05-29T22:14:16.200Z,13.40
2019-05-29T22:16:48.462Z,13.40
2019-05-29T22:19:20.301Z,13.30
2019-05-29T22:21:52.875Z,13.30
2019-05-29T22:24:25.142Z,13.40
2019-05-29T22:26:57.330Z,13.30
2019-05-29T22:29:30.237Z,13.30
2019-05-29T22:32:02.086Z,13.20
2019-05-29T22:34:34.506Z,13.20
2019-05-29T22:37:06.547Z,13.10
2019-05-29T22:39:38.511Z,13.10
2019-05-29T22:42:11.242Z,13.10
2019-05-29T22:44:44.555Z,13.10
2019-05-29T22:47:16.449Z,13.00
2019-05-29T22:49:48.680Z,12.90
2019-05-29T22:52:20.510Z,12.90
2019-05-29T22:54:53.729Z,12.90
2019-05-29T22:57:26.098Z,12.80
2019-05-29T22:59:58.140Z,12.60
2019-05-29T23:02:30.578Z,12.80
2019-05-29T23:05:03.802Z,12.70
2019-05-29T23:07:36.354Z,12.70
2019-05-29T23:10:09.675Z,12.70
2019-05-29T23:12:41.867Z,12.80
2019-05-29T23:15:14.341Z,12.70
2019-05-29T23:17:46.187Z,12.70
2019-05-29T23:20:18.342Z,12.60
2019-05-29T23:22:50.616Z,12.60
2019-05-29T23:25:23.194Z,12.60
2019-05-29T23:27:55.196Z,12.60
2019-05-29T23:30:30.302Z,12.60
2019-05-29T23:33:01.486Z,12.50
2019-05-29T23:35:33.431Z,12.50
2019-05-29T23:38:05.271Z,12.50
2019-05-29T23:40:37.677Z,12.50
2019-05-29T23:43:09.634Z,12.50
2019-05-29T23:45:41.990Z,12.50
2019-05-29T23:48:14.435Z,12.50
2019-05-29T23:50:46.574Z,12.50
2019-05-29T23:53:18.871Z,12.50
2019-05-29T23:55:51.050Z,12.50
2019-05-29T23:58:23.310Z,12.40
